Time;durP1;ratioP1;P1;durP2;ratioP2;P2;SDS_P1;SDS_P2;PMS_P1;PMS_P2;Temp;Humidity;BMP_temperature;BMP_pressure;BME280_temperature;BME280_humidity;BME280_pressure;Samples;Min_cycle;Max_cycle;Signal;HPM_P1;HPM_P2
2023/08/10 00:01:26;;;;;;;;;;;;;;;16.28;57.22;101036.16;4963046;28;6989;-71
2023/08/10 00:03:51;;;;;;;;;;;;;;;16.26;56.95;101030.94;4971253;28;6795;-72
2023/08/10 00:06:17;;;;;;;;;;;;;;;16.27;57.12;101037.00;4990197;28;7086;-70
2023/08/10 00:08:42;;;;;;;;;;;;;;;16.25;56.90;101039.53;4978532;28;6987;-71
2023/08/10 00:11:08;;;;;;;;;;;;;;;16.27;57.05;101040.44;4995277;28;6780;-69
2023/08/10 00:13:33;;;;;;;;;;;;;;;16.28;56.95;101043.94;4988591;28;6783;-71
2023/08/10 00:15:59;;;;;;;;;;;;;;;16.30;57.11;101048.34;4992036;28;6862;-72
2023/08/10 00:18:24;;;;;;;;;;;;;;;16.30;57.06;101044.84;4972030;28;7504;-72
2023/08/10 00:20:50;;;;;;;;;;;;;;;16.30;56.70;101052.63;4975148;28;7474;-70
2023/08/10 00:23:15;;;;;;;;;;;;;;;16.30;56.81;101043.16;4972040;28;7085;-70
2023/08/10 00:25:41;;;;;;;;;;;;;;;16.33;57.00;101039.81;4960193;28;6963;-70
2023/08/10 00:28:06;;;;;;;;;;;;;;;16.37;56.77;101042.56;4987375;28;6784;-71
2023/08/10 00:30:32;;;;;;;;;;;;;;;16.41;56.87;101034.88;4991940;28;6962;-71
2023/08/10 00:32:57;;;;;;;;;;;;;;;16.45;57.06;101035.03;4990672;28;6791;-70
2023/08/10 00:35:23;;;;;;;;;;;;;;;16.49;56.80;101043.78;4991947;28;6856;-71
2023/08/10 00:37:49;;;;;;;;;;;;;;;16.52;56.54;101049.06;4993857;28;6775;-70
2023/08/10 00:40:16;;;;;;;;;;;;;;;16.56;57.17;101048.31;4989526;28;7178;-71
2023/08/10 00:42:41;;;;;;;;;;;;;;;16.61;56.83;101045.91;4981029;28;6784;-70
2023/08/10 00:45:09;;;;;;;;;;;;;;;16.64;57.04;101053.78;4991663;28;7350;-69
2023/08/10 00:47:35;;;;;;;;;;;;;;;16.66;56.99;101049.53;4974727;28;6804;-69
2023/08/10 00:50:01;;;;;;;;;;;;;;;16.68;57.22;101057.34;4992456;28;6788;-69
2023/08/10 00:52:27;;;;;;;;;;;;;;;16.68;57.08;101053.03;4978401;28;6804;-71
2023/08/10 00:54:53;;;;;;;;;;;;;;;16.69;57.13;101041.00;4964013;28;8213;-71
2023/08/10 00:57:18;;;;;;;;;;;;;;;16.71;56.66;101034.16;4989061;28;7252;-69
2023/08/10 00:59:45;;;;;;;;;;;;;;;16.73;57.19;101043.75;4993272;28;6859;-70
2023/08/10 01:02:10;;;;;;;;;;;;;;;16.79;57.23;101045.66;4972020;28;6987;-71
2023/08/10 01:04:36;;;;;;;;;;;;;;;16.80;56.87;101048.28;4989906;28;6783;-71
2023/08/10 01:07:37;;;;;;;;;;;;;;;16.80;56.30;101045.72;4975088;28;6780;-69
2023/08/10 01:10:20;;;;;;;;;;;;;;;16.75;56.77;101054.13;4992119;28;6835;-70
2023/08/10 01:12:59;;;;;;;;;;;;;;;16.69;57.16;101052.22;4978906;28;7261;-70
2023/08/10 01:15:31;;;;;;;;;;;;;;;16.65;57.26;101056.41;4981649;28;6836;-70
2023/08/10 01:17:58;;;;;;;;;;;;;;;16.62;57.08;101052.84;4961054;28;8371;-72
2023/08/10 01:20:25;;;;;;;;;;;;;;;16.59;57.48;101055.31;4972585;28;7011;-70
2023/08/10 01:23:06;;;;;;;;;;;;;;;16.52;57.04;101057.72;4972611;28;6955;-72
2023/08/10 01:25:32;;;;;;;;;;;;;;;16.45;57.16;101052.25;4991191;28;6828;-70
2023/08/10 01:27:58;;;;;;;;;;;;;;;16.40;57.76;101048.66;4981373;28;6792;-70
2023/08/10 01:30:23;;;;;;;;;;;;;;;16.35;57.41;101056.25;4991741;28;7216;-70
2023/08/10 01:32:51;;;;;;;;;;;;;;;16.31;57.43;101059.53;4966509;28;6963;-69
2023/08/10 01:35:16;;;;;;;;;;;;;;;16.24;57.56;101053.28;4978758;28;7387;-72
2023/08/10 01:37:43;;;;;;;;;;;;;;;16.20;57.29;101057.47;4979921;28;6960;-71
2023/08/10 01:40:09;;;;;;;;;;;;;;;16.13;57.28;101059.78;4994007;28;6792;-71
2023/08/10 01:42:35;;;;;;;;;;;;;;;16.12;57.85;101053.72;4974552;28;7029;-71
2023/08/10 01:45:04;;;;;;;;;;;;;;;16.10;58.17;101051.09;4992858;28;6974;-71
2023/08/10 01:47:35;;;;;;;;;;;;;;;16.11;58.27;101057.13;4981259;28;6816;-71
2023/08/10 01:50:04;;;;;;;;;;;;;;;16.15;58.63;101058.13;4972772;28;7275;-70
2023/08/10 01:52:56;;;;;;;;;;;;;;;16.21;58.67;101059.22;4971469;28;6804;-69
2023/08/10 01:55:22;;;;;;;;;;;;;;;16.29;59.21;101071.56;4975743;28;7025;-70
2023/08/10 01:57:49;;;;;;;;;;;;;;;16.35;59.06;101066.59;4974217;28;7376;-72
2023/08/10 02:00:16;;;;;;;;;;;;;;;16.42;58.82;101066.00;4975422;28;6984;-69
2023/08/10 02:02:41;;;;;;;;;;;;;;;16.51;58.84;101060.25;4981898;28;7019;-71
2023/08/10 02:05:07;;;;;;;;;;;;;;;16.59;58.40;101065.66;4980793;28;7142;-70
2023/08/10 02:07:33;;;;;;;;;;;;;;;16.65;58.37;101060.72;4991443;28;6870;-69
2023/08/10 02:09:59;;;;;;;;;;;;;;;16.72;58.32;101059.19;4973687;28;6811;-70
2023/08/10 02:12:24;;;;;;;;;;;;;;;16.78;58.14;101062.88;4985231;28;6788;-72
2023/08/10 02:14:50;;;;;;;;;;;;;;;16.84;58.40;101058.75;4995798;28;6807;-70
2023/08/10 02:17:16;;;;;;;;;;;;;;;16.87;58.49;101061.41;4991272;28;6798;-72
2023/08/10 02:19:42;;;;;;;;;;;;;;;16.89;58.64;101057.16;4978462;28;7114;-70
2023/08/10 02:22:07;;;;;;;;;;;;;;;16.88;58.24;101065.75;4981188;28;6775;-70
2023/08/10 02:24:33;;;;;;;;;;;;;;;16.86;58.14;101050.19;4994634;28;7165;-69
2023/08/10 02:27:00;;;;;;;;;;;;;;;16.85;58.74;101052.72;4993750;28;6922;-72
2023/08/10 02:29:25;;;;;;;;;;;;;;;16.83;57.89;101049.22;4984985;28;8560;-71
2023/08/10 02:31:51;;;;;;;;;;;;;;;16.79;58.13;101045.66;4983737;28;6780;-70
2023/08/10 02:34:17;;;;;;;;;;;;;;;16.74;58.09;101048.09;4985169;28;7003;-70
2023/08/10 02:36:42;;;;;;;;;;;;;;;16.68;58.10;101045.28;4996635;28;6788;-70
2023/08/10 02:39:09;;;;;;;;;;;;;;;16.62;57.76;101056.31;4993651;28;6791;-70
2023/08/10 02:41:35;;;;;;;;;;;;;;;16.56;58.07;101060.41;4996482;28;6809;-70
2023/08/10 02:44:00;;;;;;;;;;;;;;;16.48;58.14;101063.59;4972844;28;6779;-70
2023/08/10 02:46:26;;;;;;;;;;;;;;;16.43;57.92;101059.09;4996058;28;7126;-71
2023/08/10 02:48:52;;;;;;;;;;;;;;;16.42;58.43;101067.69;4995724;28;7138;-70
2023/08/10 02:51:18;;;;;;;;;;;;;;;16.42;58.64;101063.41;4976391;28;7209;-71
2023/08/10 02:53:45;;;;;;;;;;;;;;;16.47;58.80;101063.56;4982991;28;7269;-70
2023/08/10 02:56:10;;;;;;;;;;;;;;;16.54;58.77;101062.94;4976408;28;6977;-71
2023/08/10 02:58:36;;;;;;;;;;;;;;;16.61;59.04;101066.59;4983308;28;6803;-73
2023/08/10 03:01:06;;;;;;;;;;;;;;;16.65;59.35;101061.56;4984438;28;7070;-69
2023/08/10 03:03:32;;;;;;;;;;;;;;;16.72;58.94;101064.38;4990818;28;7173;-70
2023/08/10 03:05:57;;;;;;;;;;;;;;;16.75;58.90;101062.78;4977524;28;6964;-71
2023/08/10 03:08:23;;;;;;;;;;;;;;;16.79;58.93;101069.81;4989111;28;6807;-72
2023/08/10 03:10:49;;;;;;;;;;;;;;;16.84;59.01;101069.09;4980924;28;7095;-71
2023/08/10 03:13:14;;;;;;;;;;;;;;;16.87;58.59;101067.50;4989747;28;6788;-71
2023/08/10 03:15:40;;;;;;;;;;;;;;;16.91;58.83;101071.06;4991612;28;6810;-71
2023/08/10 03:18:06;;;;;;;;;;;;;;;16.94;58.36;101071.16;4994401;28;6844;-71
2023/08/10 03:20:31;;;;;;;;;;;;;;;16.97;58.44;101072.97;4976776;28;6787;-70
2023/08/10 03:22:57;;;;;;;;;;;;;;;16.97;58.78;101079.00;4992144;28;7090;-70
2023/08/10 03:25:22;;;;;;;;;;;;;;;16.99;58.58;101077.34;4992293;28;7159;-70
2023/08/10 03:27:47;;;;;;;;;;;;;;;17.03;58.24;101068.00;4974971;28;6960;-72
2023/08/10 03:30:13;;;;;;;;;;;;;;;17.05;58.66;101077.59;4975678;28;6981;-72
2023/08/10 03:32:39;;;;;;;;;;;;;;;17.06;58.57;101074.16;4988412;28;7329;-71
2023/08/10 03:35:05;;;;;;;;;;;;;;;17.06;58.51;101081.06;4984050;28;7459;-73
2023/08/10 03:37:31;;;;;;;;;;;;;;;17.06;58.09;101083.66;4986608;28;6803;-71
2023/08/10 03:39:56;;;;;;;;;;;;;;;17.03;57.79;101079.25;4987215;28;7282;-69
2023/08/10 03:42:22;;;;;;;;;;;;;;;17.00;57.88;101084.34;4981088;28;8154;-70
2023/08/10 03:44:47;;;;;;;;;;;;;;;16.96;57.40;101077.25;4956038;28;7078;-70
2023/08/10 03:47:13;;;;;;;;;;;;;;;16.89;57.79;101080.47;4969425;28;6873;-71
2023/08/10 03:49:38;;;;;;;;;;;;;;;16.82;57.42;101078.53;4985098;28;6807;-72
2023/08/10 03:52:04;;;;;;;;;;;;;;;16.73;57.58;101074.81;4986143;28;6808;-70
2023/08/10 03:54:31;;;;;;;;;;;;;;;16.66;57.67;101080.59;4990767;28;6787;-70
2023/08/10 03:56:57;;;;;;;;;;;;;;;16.60;57.81;101082.94;4984312;28;7126;-70
2023/08/10 03:59:22;;;;;;;;;;;;;;;16.54;58.12;101077.59;4981401;28;6811;-70
2023/08/10 04:01:48;;;;;;;;;;;;;;;16.48;57.84;101075.69;4975842;28;7031;-71
2023/08/10 04:04:14;;;;;;;;;;;;;;;16.47;58.03;101073.91;4954397;28;6969;-73
2023/08/10 04:06:40;;;;;;;;;;;;;;;16.49;57.99;101080.03;4970846;28;7194;-71
2023/08/10 04:09:06;;;;;;;;;;;;;;;16.52;58.62;101086.19;4971261;28;6792;-70
2023/08/10 04:11:31;;;;;;;;;;;;;;;16.57;58.92;101098.38;4969732;28;9652;-72
2023/08/10 04:13:57;;;;;;;;;;;;;;;16.60;58.75;101103.66;4962185;28;7067;-69
2023/08/10 04:16:22;;;;;;;;;;;;;;;16.59;58.93;101091.56;4968799;28;6784;-70
2023/08/10 04:18:48;;;;;;;;;;;;;;;16.58;58.83;101105.31;4949081;28;8343;-70
2023/08/10 04:21:13;;;;;;;;;;;;;;;16.57;58.70;101103.56;4966799;28;6871;-72
2023/08/10 04:23:40;;;;;;;;;;;;;;;16.55;58.82;101100.03;4956356;28;6803;-69
2023/08/10 04:26:07;;;;;;;;;;;;;;;16.51;58.92;101105.13;4960279;28;7267;-69
2023/08/10 04:28:32;;;;;;;;;;;;;;;16.50;59.25;101100.75;4969554;28;6971;-72
2023/08/10 04:30:58;;;;;;;;;;;;;;;16.50;59.25;101103.34;4972437;28;6808;-71
2023/08/10 04:33:24;;;;;;;;;;;;;;;16.49;59.08;101109.34;4981393;28;7429;-71
2023/08/10 04:35:49;;;;;;;;;;;;;;;16.47;59.29;101103.25;4974852;28;7053;-71
2023/08/10 04:38:15;;;;;;;;;;;;;;;16.45;59.49;101110.06;4992062;28;6791;-70
2023/08/10 04:40:41;;;;;;;;;;;;;;;16.43;59.24;101108.25;4974191;28;6791;-71
2023/08/10 04:43:06;;;;;;;;;;;;;;;16.38;58.85;101111.56;4995144;28;6787;-69
2023/08/10 04:45:32;;;;;;;;;;;;;;;16.34;58.96;101107.09;4992743;28;6812;-71
2023/08/10 04:47:57;;;;;;;;;;;;;;;16.30;59.23;101105.25;4993559;28;7087;-69
2023/08/10 04:50:23;;;;;;;;;;;;;;;16.29;59.55;101112.94;4986586;28;7023;-72
2023/08/10 04:52:49;;;;;;;;;;;;;;;16.24;59.27;101115.34;4985944;28;6792;-69
2023/08/10 04:55:14;;;;;;;;;;;;;;;16.21;59.81;101113.53;4982398;28;6999;-70
2023/08/10 04:57:40;;;;;;;;;;;;;;;16.22;59.90;101117.91;4991819;28;6788;-70
2023/08/10 05:00:12;;;;;;;;;;;;;;;16.21;59.95;101118.69;4973582;28;6910;-72
2023/08/10 05:02:38;;;;;;;;;;;;;;;16.25;60.25;101117.13;4986178;28;7032;-69
2023/08/10 05:05:04;;;;;;;;;;;;;;;16.27;60.57;101118.03;4984248;28;6783;-71
2023/08/10 05:07:31;;;;;;;;;;;;;;;16.34;60.30;101117.44;4987065;28;6800;-71
2023/08/10 05:09:57;;;;;;;;;;;;;;;16.41;60.26;101115.94;4983660;28;7078;-68
2023/08/10 05:12:22;;;;;;;;;;;;;;;16.51;60.47;101117.16;4984175;28;7650;-69
2023/08/10 05:14:48;;;;;;;;;;;;;;;16.64;61.07;101115.91;4969235;28;7914;-69
2023/08/10 05:17:14;;;;;;;;;;;;;;;16.78;61.45;101111.19;4989426;28;6955;-71
2023/08/10 05:19:39;;;;;;;;;;;;;;;16.94;60.65;101120.34;4989913;28;8373;-69
2023/08/10 05:22:05;;;;;;;;;;;;;;;17.10;61.00;101111.41;4986026;28;7187;-70
2023/08/10 05:24:32;;;;;;;;;;;;;;;17.27;60.67;101118.84;5008675;28;6935;-71
2023/08/10 05:26:58;;;;;;;;;;;;;;;17.42;60.40;101123.63;4993063;28;7025;-70
2023/08/10 05:29:23;;;;;;;;;;;;;;;17.54;60.27;101124.00;4991807;28;6788;-72
2023/08/10 05:31:49;;;;;;;;;;;;;;;17.68;60.50;101126.16;4981306;28;7242;-70
2023/08/10 05:34:14;;;;;;;;;;;;;;;17.84;60.59;101125.75;4997915;28;7241;-69
2023/08/10 05:36:40;;;;;;;;;;;;;;;18.06;60.81;101129.03;4985590;28;7778;-69
2023/08/10 05:39:05;;;;;;;;;;;;;;;18.31;61.23;101125.41;4992994;28;7979;-70
2023/08/10 05:41:31;;;;;;;;;;;;;;;18.66;61.28;101132.41;4994812;28;6788;-69
2023/08/10 05:43:56;;;;;;;;;;;;;;;19.03;61.34;101132.47;4993082;28;6784;-71
2023/08/10 05:46:22;;;;;;;;;;;;;;;19.38;60.86;101134.16;4999047;28;6987;-69
2023/08/10 05:48:49;;;;;;;;;;;;;;;19.68;60.05;101130.50;4994857;28;6775;-71
2023/08/10 05:51:14;;;;;;;;;;;;;;;19.95;59.87;101118.97;4989779;28;7058;-71
2023/08/10 05:53:40;;;;;;;;;;;;;;;20.20;58.63;101120.34;4995113;28;7221;-72
2023/08/10 05:56:05;;;;;;;;;;;;;;;20.39;57.51;101116.38;4998091;28;7294;-73
2023/08/10 05:58:31;;;;;;;;;;;;;;;20.50;56.85;101116.56;4996713;28;6874;-72
2023/08/10 06:00:56;;;;;;;;;;;;;;;20.55;55.95;101119.25;5001447;28;7011;-73
2023/08/10 06:03:22;;;;;;;;;;;;;;;20.62;56.00;101123.72;4997552;28;6795;-73
2023/08/10 06:05:47;;;;;;;;;;;;;;;20.73;55.93;101117.81;4997577;28;6970;-72
2023/08/10 06:08:14;;;;;;;;;;;;;;;20.85;55.55;101115.47;4998267;28;6948;-72
2023/08/10 06:10:39;;;;;;;;;;;;;;;20.94;55.23;101118.22;4995427;28;7030;-72
2023/08/10 06:13:05;;;;;;;;;;;;;;;21.01;54.83;101118.31;4996045;28;7241;-73
2023/08/10 06:15:30;;;;;;;;;;;;;;;21.04;54.62;101113.16;4996138;28;6865;-72
2023/08/10 06:17:56;;;;;;;;;;;;;;;21.04;54.25;101124.47;4999034;28;6800;-74
2023/08/10 06:20:22;;;;;;;;;;;;;;;20.95;54.09;101119.09;4994031;28;6930;-73
2023/08/10 06:22:48;;;;;;;;;;;;;;;20.85;53.97;101119.81;4998925;28;7295;-73
2023/08/10 06:25:14;;;;;;;;;;;;;;;20.78;53.80;101124.00;4999466;28;6880;-72
2023/08/10 06:27:40;;;;;;;;;;;;;;;20.69;53.77;101127.31;4992646;28;6792;-72
2023/08/10 06:30:08;;;;;;;;;;;;;;;20.60;53.57;101130.63;4992462;28;6803;-72
2023/08/10 06:32:35;;;;;;;;;;;;;;;20.48;53.75;101139.09;4977502;28;8557;-72
2023/08/10 06:35:01;;;;;;;;;;;;;;;20.38;53.80;101132.84;4992348;28;6889;-72
2023/08/10 06:37:26;;;;;;;;;;;;;;;20.30;54.10;101134.44;4992883;28;6875;-73
2023/08/10 06:39:52;;;;;;;;;;;;;;;20.22;54.33;101128.19;5001186;28;6854;-71
2023/08/10 06:42:17;;;;;;;;;;;;;;;20.17;54.04;101133.31;4992272;28;6799;-74
2023/08/10 06:44:44;;;;;;;;;;;;;;;20.10;53.61;101132.31;4997325;28;6970;-73
2023/08/10 06:47:10;;;;;;;;;;;;;;;20.04;53.95;101137.38;4997633;28;6792;-72
2023/08/10 06:49:37;;;;;;;;;;;;;;;19.98;54.06;101140.72;4994677;28;7283;-71
2023/08/10 06:52:03;;;;;;;;;;;;;;;19.96;54.00;101138.94;4990643;28;6927;-72
2023/08/10 06:54:29;;;;;;;;;;;;;;;19.94;54.11;101128.50;4996302;28;6811;-72
2023/08/10 06:56:55;;;;;;;;;;;;;;;19.95;53.97;101131.97;4996192;28;6892;-72
2023/08/10 06:59:21;;;;;;;;;;;;;;;19.96;53.74;101133.72;4998406;28;7054;-74
2023/08/10 07:01:47;;;;;;;;;;;;;;;19.98;54.06;101127.72;4990108;28;6799;-73
2023/08/10 07:04:12;;;;;;;;;;;;;;;20.03;53.80;101124.31;4997786;28;7931;-73
2023/08/10 07:06:38;;;;;;;;;;;;;;;20.06;53.22;101127.88;4998523;28;7038;-73
2023/08/10 07:09:03;;;;;;;;;;;;;;;20.11;53.72;101130.56;4994748;28;6800;-74
2023/08/10 07:11:29;;;;;;;;;;;;;;;20.18;52.95;101128.94;4995842;28;6811;-73
2023/08/10 07:13:55;;;;;;;;;;;;;;;20.26;53.16;101132.59;4983666;28;7073;-72
2023/08/10 07:16:21;;;;;;;;;;;;;;;20.34;52.64;101125.81;5010127;28;6863;-72
2023/08/10 07:18:46;;;;;;;;;;;;;;;20.40;51.95;101131.16;4985182;28;7111;-72
2023/08/10 07:21:12;;;;;;;;;;;;;;;20.47;51.82;101126.03;4984320;28;7309;-74
2023/08/10 07:23:38;;;;;;;;;;;;;;;20.55;51.76;101127.06;4971653;28;7162;-73
2023/08/10 07:26:03;;;;;;;;;;;;;;;20.62;51.41;101126.31;5000571;28;7229;-72
2023/08/10 07:28:29;;;;;;;;;;;;;;;20.71;51.07;101127.34;4994133;28;6867;-73
2023/08/10 07:30:54;;;;;;;;;;;;;;;20.79;50.80;101128.38;4993764;28;6831;-73
2023/08/10 07:33:20;;;;;;;;;;;;;;;20.88;50.32;101128.56;4995295;28;6815;-74
2023/08/10 07:35:46;;;;;;;;;;;;;;;20.98;50.51;101124.34;4995662;28;6876;-73
2023/08/10 07:38:16;;;;;;;;;;;;;;;21.06;49.48;101122.75;4973035;28;7776;-74
2023/08/10 07:40:42;;;;;;;;;;;;;;;21.16;49.38;101125.50;4991533;28;6788;-72
2023/08/10 07:43:08;;;;;;;;;;;;;;;21.26;48.67;101121.34;4988483;28;6950;-72
2023/08/10 07:45:33;;;;;;;;;;;;;;;21.35;48.24;101127.53;5000219;28;8068;-73
2023/08/10 07:47:59;;;;;;;;;;;;;;;21.47;47.43;101115.53;4980168;28;6821;-72
2023/08/10 07:50:25;;;;;;;;;;;;;;;21.58;46.74;101126.13;4980781;28;7156;-74
2023/08/10 07:52:51;;;;;;;;;;;;;;;21.67;46.75;101115.84;5010830;28;7258;-73
2023/08/10 07:55:16;;;;;;;;;;;;;;;21.77;46.43;101112.50;5009730;28;6963;-73
2023/08/10 07:57:42;;;;;;;;;;;;;;;21.93;46.76;101120.53;4998232;28;6911;-73
2023/08/10 08:00:10;;;;;;;;;;;;;;;22.03;45.82;101114.59;4993325;28;6783;-74
2023/08/10 08:02:36;;;;;;;;;;;;;;;22.12;45.84;101107.72;4994825;28;11693;-74
2023/08/10 08:05:02;;;;;;;;;;;;;;;22.23;45.24;101110.44;4990401;28;6800;-73
2023/08/10 08:07:30;;;;;;;;;;;;;;;22.31;45.32;101106.16;4991111;28;6791;-73
2023/08/10 08:09:59;;;;;;;;;;;;;;;22.39;44.92;101108.84;4984676;28;7065;-74
2023/08/10 08:12:27;;;;;;;;;;;;;;;22.45;44.60;101107.22;4978868;28;8846;-73
2023/08/10 08:14:55;;;;;;;;;;;;;;;22.55;43.08;101104.69;4997807;28;8560;-73
2023/08/10 08:17:22;;;;;;;;;;;;;;;22.60;42.98;101101.28;4995076;28;6799;-73
2023/08/10 08:19:48;;;;;;;;;;;;;;;22.69;42.92;101099.59;5008089;28;7248;-73
2023/08/10 08:22:14;;;;;;;;;;;;;;;22.79;42.91;101100.56;4989498;28;6839;-73
2023/08/10 08:24:40;;;;;;;;;;;;;;;22.89;42.26;101095.44;4991325;28;7636;-72
2023/08/10 08:27:05;;;;;;;;;;;;;;;22.99;41.54;101095.50;5009633;28;6977;-72
2023/08/10 08:29:32;;;;;;;;;;;;;;;23.08;41.65;101092.97;5003272;28;7236;-72
2023/08/10 08:31:57;;;;;;;;;;;;;;;23.21;41.64;101095.66;4992911;28;7181;-72
2023/08/10 08:34:22;;;;;;;;;;;;;;;23.30;41.31;101093.13;4994545;28;6775;-72
2023/08/10 08:36:48;;;;;;;;;;;;;;;23.39;41.14;101093.19;4974187;28;6967;-72
2023/08/10 08:39:14;;;;;;;;;;;;;;;23.49;41.20;101082.78;4993687;28;6944;-73
2023/08/10 08:41:40;;;;;;;;;;;;;;;23.55;40.89;101080.16;5006768;28;6819;-72
2023/08/10 08:44:08;;;;;;;;;;;;;;;23.63;40.52;101081.09;5000852;28;6890;-72
2023/08/10 08:46:38;;;;;;;;;;;;;;;23.77;41.38;101083.75;4988978;28;7339;-72
2023/08/10 08:49:04;;;;;;;;;;;;;;;23.91;40.88;101080.34;4991075;28;7773;-72
2023/08/10 08:51:31;;;;;;;;;;;;;;;24.05;40.29;101078.66;4993307;28;8971;-72
2023/08/10 08:54:00;;;;;;;;;;;;;;;24.24;39.83;101079.59;4979412;28;7000;-72
2023/08/10 08:56:26;;;;;;;;;;;;;;;24.41;40.02;101078.72;5000948;28;6884;-72
2023/08/10 08:58:53;;;;;;;;;;;;;;;24.64;40.25;101088.38;4989745;28;7067;-72
2023/08/10 09:01:19;;;;;;;;;;;;;;;24.91;40.10;101082.28;4989382;28;6795;-72
2023/08/10 09:03:45;;;;;;;;;;;;;;;25.25;39.59;101083.97;4994599;28;6800;-72
2023/08/10 09:06:11;;;;;;;;;;;;;;;25.77;39.39;101076.81;4985431;28;6855;-73
2023/08/10 09:08:38;;;;;;;;;;;;;;;26.44;39.03;101072.06;4990240;28;7865;-72
2023/08/10 09:11:04;;;;;;;;;;;;;;;27.26;37.89;101080.13;4993203;28;7154;-72
2023/08/10 09:13:30;;;;;;;;;;;;;;;28.12;36.89;101070.31;5003427;28;6970;-72
2023/08/10 09:16:23;;;;;;;;;;;;;;;29.16;34.49;101074.78;4993917;28;6795;-72
2023/08/10 09:18:48;;;;;;;;;;;;;;;30.00;33.10;101067.81;4995934;28;6976;-72
2023/08/10 09:21:20;;;;;;;;;;;;;;;30.72;32.47;101067.03;4995873;28;6796;-72
2023/08/10 09:23:52;;;;;;;;;;;;;;;31.35;31.16;101060.94;4993352;28;7358;-73
2023/08/10 09:26:19;;;;;;;;;;;;;;;31.93;30.32;101054.84;4977710;28;7237;-72
2023/08/10 09:28:47;;;;;;;;;;;;;;;32.46;29.54;101054.03;4991510;28;6851;-72
2023/08/10 09:31:14;;;;;;;;;;;;;;;32.88;28.81;101046.41;4993159;28;6820;-73
2023/08/10 09:33:39;;;;;;;;;;;;;;;33.20;28.69;101047.94;4995208;28;6776;-72
2023/08/10 09:36:07;;;;;;;;;;;;;;;33.45;27.95;101040.81;4991662;28;6784;-72
2023/08/10 09:38:32;;;;;;;;;;;;;;;33.75;27.91;101043.25;4995233;28;7051;-73
2023/08/10 09:41:11;;;;;;;;;;;;;;;34.08;27.71;101045.47;4986328;28;7812;-73
2023/08/10 09:43:37;;;;;;;;;;;;;;;34.35;27.20;101045.28;4989809;28;6981;-72
2023/08/10 09:46:04;;;;;;;;;;;;;;;34.63;26.77;101046.78;4994138;28;6799;-73
2023/08/10 09:48:34;;;;;;;;;;;;;;;34.95;26.49;101046.31;4999322;28;7314;-73
2023/08/10 09:51:02;;;;;;;;;;;;;;;35.22;26.29;101054.00;4992429;28;7002;-73
2023/08/10 09:53:28;;;;;;;;;;;;;;;35.50;25.68;101036.75;4983811;28;8942;-73
2023/08/10 09:55:54;;;;;;;;;;;;;;;35.69;25.26;101031.41;4991816;28;7253;-73
2023/08/10 09:58:20;;;;;;;;;;;;;;;35.68;24.86;101035.88;4993490;28;7260;-73
2023/08/10 10:00:46;;;;;;;;;;;;;;;35.72;25.32;101036.59;4996895;28;6796;-72
2023/08/10 10:03:12;;;;;;;;;;;;;;;35.81;24.88;101030.81;4992266;28;7377;-73
2023/08/10 10:05:38;;;;;;;;;;;;;;;36.08;24.65;101033.09;4996084;28;6952;-72
2023/08/10 10:08:06;;;;;;;;;;;;;;;36.35;24.42;101037.97;4985921;28;6792;-72
2023/08/10 10:10:35;;;;;;;;;;;;;;;36.77;24.46;101043.00;4993895;28;6973;-73
2023/08/10 10:13:05;;;;;;;;;;;;;;;37.01;24.21;101043.50;4972830;28;7656;-73
2023/08/10 10:15:31;;;;;;;;;;;;;;;37.06;23.07;101051.28;4987249;28;6892;-72
2023/08/10 10:17:57;;;;;;;;;;;;;;;37.13;23.02;101047.34;4993345;28;6808;-73
2023/08/10 10:20:23;;;;;;;;;;;;;;;37.25;22.68;101051.16;4994086;28;7015;-71
2023/08/10 10:22:49;;;;;;;;;;;;;;;37.37;22.61;101045.13;5000785;28;6812;-71
2023/08/10 10:25:19;;;;;;;;;;;;;;;37.62;22.69;101054.50;4995224;28;6816;-71
2023/08/10 10:27:53;;;;;;;;;;;;;;;37.86;22.66;101061.19;4999699;28;6972;-71
2023/08/10 10:30:22;;;;;;;;;;;;;;;38.01;22.52;101064.81;5002961;28;6820;-71
2023/08/10 10:32:51;;;;;;;;;;;;;;;38.02;22.29;101062.06;4991869;28;7402;-70
2023/08/10 10:35:24;;;;;;;;;;;;;;;38.11;21.98;101057.13;4993425;28;6816;-71
2023/08/10 10:37:58;;;;;;;;;;;;;;;38.03;21.53;101063.78;5008629;28;7244;-71
2023/08/10 10:40:24;;;;;;;;;;;;;;;37.94;22.07;101061.59;5003898;28;6863;-70
2023/08/10 10:43:17;;;;;;;;;;;;;;;37.84;22.08;101058.63;4998522;28;6922;-71
2023/08/10 10:45:43;;;;;;;;;;;;;;;37.91;21.82;101056.44;4996580;28;6928;-71
2023/08/10 10:48:13;;;;;;;;;;;;;;;37.95;21.82;101049.94;4997124;28;7240;-71
2023/08/10 10:50:39;;;;;;;;;;;;;;;37.92;21.36;101045.66;4993961;28;6799;-71
2023/08/10 10:53:11;;;;;;;;;;;;;;;37.96;21.98;101041.00;4989626;28;6955;-72
2023/08/10 10:55:44;;;;;;;;;;;;;;;38.05;22.25;101039.63;4996756;28;6816;-72
2023/08/10 10:58:12;;;;;;;;;;;;;;;38.15;21.94;101039.94;4996526;28;6807;-72
2023/08/10 11:00:38;;;;;;;;;;;;;;;38.29;21.86;101049.81;4990933;28;6796;-72
2023/08/10 11:03:06;;;;;;;;;;;;;;;38.46;21.64;101044.31;5013223;28;6828;-72
2023/08/10 11:05:32;;;;;;;;;;;;;;;38.59;21.30;101047.16;4998324;28;6832;-72
2023/08/10 11:08:03;;;;;;;;;;;;;;;38.50;20.83;101038.84;4991773;28;7063;-72
2023/08/10 11:10:30;;;;;;;;;;;;;;;38.25;20.66;101038.47;5009348;28;7014;-72
2023/08/10 11:12:55;;;;;;;;;;;;;;;38.09;21.29;101034.97;5009410;28;6816;-72
2023/08/10 11:15:21;;;;;;;;;;;;;;;38.12;21.37;101029.41;4998527;28;6791;-71
2023/08/10 11:17:48;;;;;;;;;;;;;;;38.36;21.92;101020.91;4993141;28;7119;-72
2023/08/10 11:20:18;;;;;;;;;;;;;;;38.58;21.20;101015.97;4997320;28;6867;-72
2023/08/10 11:22:47;;;;;;;;;;;;;;;38.52;20.89;101016.34;4981155;28;7248;-72
2023/08/10 11:25:15;;;;;;;;;;;;;;;38.36;21.16;101010.19;4984200;28;7736;-72
2023/08/10 11:27:44;;;;;;;;;;;;;;;38.08;21.05;101019.88;4989689;28;6816;-72
2023/08/10 11:30:13;;;;;;;;;;;;;;;37.65;21.12;101021.34;4975988;28;6996;-72
2023/08/10 11:32:40;;;;;;;;;;;;;;;37.23;21.71;101016.50;4977606;28;13050;-71
2023/08/10 11:35:07;;;;;;;;;;;;;;;36.92;21.66;101009.25;4991675;28;6815;-71
2023/08/10 11:37:35;;;;;;;;;;;;;;;36.73;22.04;101017.41;4995879;28;6943;-71
2023/08/10 11:40:17;;;;;;;;;;;;;;;36.57;22.22;101012.88;4980793;28;6803;-71
2023/08/10 11:42:48;;;;;;;;;;;;;;;36.46;22.47;101016.09;4989300;28;6823;-71
2023/08/10 11:45:17;;;;;;;;;;;;;;;36.40;22.66;101022.56;4997209;28;6866;-71
2023/08/10 11:47:45;;;;;;;;;;;;;;;36.49;22.53;101023.06;4988242;28;7322;-72
2023/08/10 11:50:13;;;;;;;;;;;;;;;36.54;22.39;101015.69;4987381;28;7245;-71
2023/08/10 11:52:40;;;;;;;;;;;;;;;36.31;22.40;101009.72;5011058;28;6879;-71
2023/08/10 11:55:13;;;;;;;;;;;;;;;36.03;22.72;101013.78;4993962;28;7025;-72
2023/08/10 11:57:41;;;;;;;;;;;;;;;35.65;23.12;101013.84;5010289;28;6856;-71
2023/08/10 12:00:30;;;;;;;;;;;;;;;35.63;23.04;101021.03;4991537;28;7001;-71
2023/08/10 12:03:18;;;;;;;;;;;;;;;35.67;22.49;101012.81;4995169;28;11435;-71
2023/08/10 12:05:51;;;;;;;;;;;;;;;35.58;22.72;101016.81;5010228;28;6823;-71
2023/08/10 12:08:19;;;;;;;;;;;;;;;35.52;23.34;101025.06;4989495;28;7501;-71
2023/08/10 12:10:48;;;;;;;;;;;;;;;35.66;22.77;101018.25;4995491;28;6871;-71
2023/08/10 12:13:19;;;;;;;;;;;;;;;35.92;23.07;101010.75;4993931;28;7163;-71
2023/08/10 12:15:46;;;;;;;;;;;;;;;36.24;22.86;101003.84;4991227;28;7286;-71
2023/08/10 12:18:14;;;;;;;;;;;;;;;36.51;22.47;101010.50;4994903;28;7044;-71
2023/08/10 12:20:40;;;;;;;;;;;;;;;36.79;22.28;100999.25;4975210;28;7057;-71
2023/08/10 12:23:08;;;;;;;;;;;;;;;37.12;22.11;101005.56;4987874;28;7168;-71
2023/08/10 12:25:33;;;;;;;;;;;;;;;37.18;21.53;100996.34;4985557;28;6816;-71
2023/08/10 12:27:59;;;;;;;;;;;;;;;37.13;21.55;100998.38;5011332;28;6972;-71
2023/08/10 12:30:24;;;;;;;;;;;;;;;37.00;21.29;100996.38;4992041;28;6979;-71
2023/08/10 12:32:50;;;;;;;;;;;;;;;36.77;21.91;100998.47;4987852;28;6779;-71
2023/08/10 12:35:16;;;;;;;;;;;;;;;36.67;21.96;101003.44;4982541;28;6953;-71
2023/08/10 12:37:42;;;;;;;;;;;;;;;36.76;22.35;100998.56;4981537;28;7165;-72
2023/08/10 12:40:08;;;;;;;;;;;;;;;36.99;22.18;101008.00;4989584;28;7003;-71
2023/08/10 12:42:33;;;;;;;;;;;;;;;37.14;22.24;101010.81;4982844;28;6851;-71
2023/08/10 12:44:59;;;;;;;;;;;;;;;36.97;22.20;101010.75;4981111;28;6957;-71